sensor_id;sensor_type;location;lat;lon;timestamp;P1;durP1;ratioP1;P2;durP2;ratioP2
42296;SDS011;28985;47.456;19.016;2022-12-05T00:00:46;57.30;;;55.08;;
42296;SDS011;28985;47.456;19.016;2022-12-05T00:03:13;56.85;;;54.58;;
42296;SDS011;28985;47.456;19.016;2022-12-05T00:05:39;57.92;;;55.55;;
42296;SDS011;28985;47.456;19.016;2022-12-05T00:08:06;57.65;;;55.25;;
42296;SDS011;28985;47.456;19.016;2022-12-05T00:10:36;58.60;;;56.10;;
42296;SDS011;28985;47.456;19.016;2022-12-05T00:13:04;56.08;;;53.67;;
42296;SDS011;28985;47.456;19.016;2022-12-05T00:15:34;57.42;;;55.17;;
42296;SDS011;28985;47.456;19.016;2022-12-05T00:18:02;55.17;;;52.97;;
42296;SDS011;28985;47.456;19.016;2022-12-05T00:20:29;57.90;;;55.45;;
42296;SDS011;28985;47.456;19.016;2022-12-05T00:22:56;56.80;;;54.42;;
42296;SDS011;28985;47.456;19.016;2022-12-05T00:25:22;56.58;;;54.30;;
42296;SDS011;28985;47.456;19.016;2022-12-05T00:27:49;55.22;;;53.03;;
42296;SDS011;28985;47.456;19.016;2022-12-05T00:30:16;54.83;;;52.65;;
42296;SDS011;28985;47.456;19.016;2022-12-05T00:32:42;55.35;;;52.85;;
42296;SDS011;28985;47.456;19.016;2022-12-05T00:35:09;55.80;;;53.40;;
42296;SDS011;28985;47.456;19.016;2022-12-05T00:37:35;55.30;;;52.80;;
42296;SDS011;28985;47.456;19.016;2022-12-05T00:40:02;55.85;;;53.42;;
42296;SDS011;28985;47.456;19.016;2022-12-05T00:42:29;56.10;;;53.80;;
42296;SDS011;28985;47.456;19.016;2022-12-05T00:44:56;56.55;;;54.15;;
42296;SDS011;28985;47.456;19.016;2022-12-05T00:47:22;56.30;;;53.90;;
42296;SDS011;28985;47.456;19.016;2022-12-05T00:49:49;56.90;;;54.47;;
42296;SDS011;28985;47.456;19.016;2022-12-05T00:52:15;55.75;;;53.45;;
42296;SDS011;28985;47.456;19.016;2022-12-05T00:54:42;55.55;;;53.30;;
42296;SDS011;28985;47.456;19.016;2022-12-05T00:57:08;56.75;;;54.42;;
42296;SDS011;28985;47.456;19.016;2022-12-05T00:59:35;56.85;;;54.65;;
42296;SDS011;28985;47.456;19.016;2022-12-05T01:02:02;55.92;;;53.53;;
42296;SDS011;28985;47.456;19.016;2022-12-05T01:04:28;54.72;;;52.35;;
42296;SDS011;28985;47.456;19.016;2022-12-05T01:06:55;53.90;;;51.63;;
42296;SDS011;28985;47.456;19.016;2022-12-05T01:09:24;57.25;;;54.75;;
42296;SDS011;28985;47.456;19.016;2022-12-05T01:11:50;55.47;;;53.15;;
42296;SDS011;28985;47.456;19.016;2022-12-05T01:14:18;56.60;;;54.30;;
42296;SDS011;28985;47.456;19.016;2022-12-05T01:16:47;57.03;;;54.67;;
42296;SDS011;28985;47.456;19.016;2022-12-05T01:19:19;56.47;;;54.13;;
42296;SDS011;28985;47.456;19.016;2022-12-05T01:21:48;54.10;;;51.97;;
42296;SDS011;28985;47.456;19.016;2022-12-05T01:24:15;52.08;;;50.05;;
42296;SDS011;28985;47.456;19.016;2022-12-05T01:26:43;54.17;;;51.97;;
42296;SDS011;28985;47.456;19.016;2022-12-05T01:29:11;53.15;;;50.90;;
42296;SDS011;28985;47.456;19.016;2022-12-05T01:31:39;51.17;;;49.00;;
42296;SDS011;28985;47.456;19.016;2022-12-05T01:34:07;52.17;;;49.97;;
42296;SDS011;28985;47.456;19.016;2022-12-05T01:36:36;51.05;;;49.05;;
42296;SDS011;28985;47.456;19.016;2022-12-05T01:39:05;50.95;;;48.92;;
42296;SDS011;28985;47.456;19.016;2022-12-05T01:41:34;50.90;;;48.85;;
42296;SDS011;28985;47.456;19.016;2022-12-05T01:46:51;48.83;;;46.63;;
42296;SDS011;28985;47.456;19.016;2022-12-05T01:49:19;47.67;;;45.80;;
42296;SDS011;28985;47.456;19.016;2022-12-05T01:51:51;47.60;;;45.55;;
42296;SDS011;28985;47.456;19.016;2022-12-05T01:54:20;47.55;;;45.55;;
42296;SDS011;28985;47.456;19.016;2022-12-05T01:56:59;46.67;;;44.72;;
42296;SDS011;28985;47.456;19.016;2022-12-05T01:59:28;47.80;;;45.80;;
42296;SDS011;28985;47.456;19.016;2022-12-05T02:01:58;46.58;;;44.70;;
42296;SDS011;28985;47.456;19.016;2022-12-05T02:04:26;50.15;;;48.03;;
42296;SDS011;28985;47.456;19.016;2022-12-05T02:06:53;50.17;;;47.92;;
42296;SDS011;28985;47.456;19.016;2022-12-05T02:09:20;48.35;;;46.30;;
42296;SDS011;28985;47.456;19.016;2022-12-05T02:11:52;48.92;;;46.92;;
42296;SDS011;28985;47.456;19.016;2022-12-05T02:17:12;48.50;;;46.53;;
42296;SDS011;28985;47.456;19.016;2022-12-05T02:29:01;44.63;;;42.83;;
42296;SDS011;28985;47.456;19.016;2022-12-05T02:31:06;45.25;;;43.25;;
42296;SDS011;28985;47.456;19.016;2022-12-05T02:33:59;46.03;;;44.03;;
42296;SDS011;28985;47.456;19.016;2022-12-05T02:39:16;46.67;;;44.67;;
42296;SDS011;28985;47.456;19.016;2022-12-05T02:42:08;47.25;;;45.25;;
42296;SDS011;28985;47.456;19.016;2022-12-05T02:44:46;45.72;;;43.88;;
42296;SDS011;28985;47.456;19.016;2022-12-05T02:47:18;46.95;;;44.85;;
42296;SDS011;28985;47.456;19.016;2022-12-05T02:49:48;46.08;;;44.17;;
42296;SDS011;28985;47.456;19.016;2022-12-05T02:52:17;46.50;;;44.60;;
42296;SDS011;28985;47.456;19.016;2022-12-05T02:54:45;48.60;;;46.40;;
42296;SDS011;28985;47.456;19.016;2022-12-05T02:57:14;48.35;;;46.05;;
42296;SDS011;28985;47.456;19.016;2022-12-05T02:59:43;47.80;;;45.47;;
42296;SDS011;28985;47.456;19.016;2022-12-05T03:02:30;51.03;;;48.83;;
42296;SDS011;28985;47.456;19.016;2022-12-05T03:05:08;48.17;;;46.22;;
42296;SDS011;28985;47.456;19.016;2022-12-05T03:07:38;48.97;;;46.80;;
42296;SDS011;28985;47.456;19.016;2022-12-05T03:10:08;49.28;;;47.10;;
42296;SDS011;28985;47.456;19.016;2022-12-05T03:12:38;50.78;;;48.67;;
42296;SDS011;28985;47.456;19.016;2022-12-05T03:15:17;49.85;;;47.60;;
42296;SDS011;28985;47.456;19.016;2022-12-05T03:17:50;49.70;;;47.55;;
42296;SDS011;28985;47.456;19.016;2022-12-05T03:23:29;49.90;;;47.78;;
42296;SDS011;28985;47.456;19.016;2022-12-05T03:26:04;47.40;;;45.30;;
42296;SDS011;28985;47.456;19.016;2022-12-05T03:28:59;47.90;;;45.85;;
42296;SDS011;28985;47.456;19.016;2022-12-05T03:31:44;46.90;;;44.95;;
42296;SDS011;28985;47.456;19.016;2022-12-05T03:34:31;47.72;;;45.63;;
42296;SDS011;28985;47.456;19.016;2022-12-05T03:37:04;48.05;;;45.78;;
42296;SDS011;28985;47.456;19.016;2022-12-05T03:39:36;49.65;;;47.47;;
42296;SDS011;28985;47.456;19.016;2022-12-05T03:42:11;48.45;;;46.35;;
42296;SDS011;28985;47.456;19.016;2022-12-05T03:47:27;48.10;;;45.65;;
42296;SDS011;28985;47.456;19.016;2022-12-05T03:49:58;47.70;;;45.70;;
42296;SDS011;28985;47.456;19.016;2022-12-05T03:52:49;48.63;;;46.53;;
42296;SDS011;28985;47.456;19.016;2022-12-05T03:55:40;48.75;;;46.65;;
42296;SDS011;28985;47.456;19.016;2022-12-05T03:58:10;47.90;;;45.60;;
42296;SDS011;28985;47.456;19.016;2022-12-05T04:00:44;50.05;;;47.75;;
42296;SDS011;28985;47.456;19.016;2022-12-05T04:03:17;49.78;;;47.50;;
42296;SDS011;28985;47.456;19.016;2022-12-05T04:08:25;50.28;;;48.15;;
42296;SDS011;28985;47.456;19.016;2022-12-05T04:10:57;50.97;;;48.67;;
42296;SDS011;28985;47.456;19.016;2022-12-05T04:16:04;49.85;;;47.80;;
42296;SDS011;28985;47.456;19.016;2022-12-05T04:21:37;49.95;;;47.75;;
42296;SDS011;28985;47.456;19.016;2022-12-05T04:24:10;52.33;;;49.92;;
42296;SDS011;28985;47.456;19.016;2022-12-05T04:27:45;50.15;;;48.15;;
42296;SDS011;28985;47.456;19.016;2022-12-05T04:30:09;49.50;;;47.42;;
42296;SDS011;28985;47.456;19.016;2022-12-05T04:38:26;46.53;;;44.70;;
42296;SDS011;28985;47.456;19.016;2022-12-05T04:40:58;51.03;;;48.75;;
42296;SDS011;28985;47.456;19.016;2022-12-05T04:43:27;48.92;;;46.92;;
42296;SDS011;28985;47.456;19.016;2022-12-05T04:45:58;51.05;;;48.80;;
42296;SDS011;28985;47.456;19.016;2022-12-05T04:48:28;52.35;;;49.70;;
42296;SDS011;28985;47.456;19.016;2022-12-05T04:50:56;51.83;;;49.53;;
42296;SDS011;28985;47.456;19.016;2022-12-05T04:53:25;51.45;;;49.28;;
42296;SDS011;28985;47.456;19.016;2022-12-05T04:55:54;51.90;;;49.70;;
42296;SDS011;28985;47.456;19.016;2022-12-05T04:58:25;50.92;;;48.63;;
42296;SDS011;28985;47.456;19.016;2022-12-05T05:03:51;50.55;;;48.25;;
42296;SDS011;28985;47.456;19.016;2022-12-05T05:06:23;50.20;;;47.95;;
42296;SDS011;28985;47.456;19.016;2022-12-05T05:08:52;49.85;;;47.65;;
42296;SDS011;28985;47.456;19.016;2022-12-05T05:11:22;50.65;;;48.47;;
42296;SDS011;28985;47.456;19.016;2022-12-05T05:13:50;51.30;;;49.10;;
42296;SDS011;28985;47.456;19.016;2022-12-05T05:16:23;52.05;;;49.95;;
42296;SDS011;28985;47.456;19.016;2022-12-05T05:18:51;52.30;;;49.70;;
42296;SDS011;28985;47.456;19.016;2022-12-05T05:21:28;51.13;;;48.80;;
42296;SDS011;28985;47.456;19.016;2022-12-05T05:23:56;52.50;;;50.30;;
42296;SDS011;28985;47.456;19.016;2022-12-05T05:26:23;51.95;;;49.75;;
42296;SDS011;28985;47.456;19.016;2022-12-05T05:28:51;53.80;;;51.20;;
42296;SDS011;28985;47.456;19.016;2022-12-05T05:31:19;51.10;;;48.90;;
42296;SDS011;28985;47.456;19.016;2022-12-05T05:33:53;50.45;;;47.95;;
42296;SDS011;28985;47.456;19.016;2022-12-05T05:36:21;52.07;;;49.83;;
42296;SDS011;28985;47.456;19.016;2022-12-05T05:38:49;51.72;;;49.38;;
42296;SDS011;28985;47.456;19.016;2022-12-05T05:41:19;52.45;;;50.20;;
42296;SDS011;28985;47.456;19.016;2022-12-05T05:43:48;51.10;;;48.95;;
42296;SDS011;28985;47.456;19.016;2022-12-05T05:46:16;51.08;;;48.47;;
42296;SDS011;28985;47.456;19.016;2022-12-05T05:48:44;51.58;;;49.15;;
42296;SDS011;28985;47.456;19.016;2022-12-05T05:51:13;51.92;;;49.60;;
42296;SDS011;28985;47.456;19.016;2022-12-05T05:53:40;54.58;;;51.80;;
42296;SDS011;28985;47.456;19.016;2022-12-05T05:56:09;50.35;;;48.33;;
42296;SDS011;28985;47.456;19.016;2022-12-05T05:58:43;52.42;;;50.33;;
42296;SDS011;28985;47.456;19.016;2022-12-05T06:01:11;53.20;;;50.85;;
42296;SDS011;28985;47.456;19.016;2022-12-05T06:03:39;52.55;;;50.28;;
42296;SDS011;28985;47.456;19.016;2022-12-05T06:06:09;53.45;;;51.10;;
42296;SDS011;28985;47.456;19.016;2022-12-05T06:08:38;52.08;;;49.70;;
42296;SDS011;28985;47.456;19.016;2022-12-05T06:11:10;50.42;;;48.40;;
42296;SDS011;28985;47.456;19.016;2022-12-05T06:13:38;51.75;;;49.50;;
42296;SDS011;28985;47.456;19.016;2022-12-05T06:16:05;52.10;;;49.90;;
42296;SDS011;28985;47.456;19.016;2022-12-05T06:18:33;49.97;;;47.78;;
42296;SDS011;28985;47.456;19.016;2022-12-05T06:21:00;50.17;;;47.90;;
42296;SDS011;28985;47.456;19.016;2022-12-05T06:23:28;51.88;;;49.55;;
42296;SDS011;28985;47.456;19.016;2022-12-05T06:25:55;49.38;;;47.10;;
42296;SDS011;28985;47.456;19.016;2022-12-05T06:28:22;53.83;;;51.53;;
42296;SDS011;28985;47.456;19.016;2022-12-05T06:30:50;51.03;;;48.85;;
42296;SDS011;28985;47.456;19.016;2022-12-05T06:33:17;52.47;;;50.30;;
42296;SDS011;28985;47.456;19.016;2022-12-05T06:35:44;54.50;;;52.00;;
42296;SDS011;28985;47.456;19.016;2022-12-05T06:38:11;53.42;;;51.05;;
42296;SDS011;28985;47.456;19.016;2022-12-05T06:40:39;57.03;;;54.50;;
42296;SDS011;28985;47.456;19.016;2022-12-05T06:43:06;56.47;;;53.97;;
42296;SDS011;28985;47.456;19.016;2022-12-05T06:45:33;55.03;;;52.72;;
42296;SDS011;28985;47.456;19.016;2022-12-05T06:48:00;58.00;;;55.30;;
42296;SDS011;28985;47.456;19.016;2022-12-05T06:50:26;59.03;;;56.53;;
42296;SDS011;28985;47.456;19.016;2022-12-05T06:52:53;59.42;;;56.90;;
42296;SDS011;28985;47.456;19.016;2022-12-05T06:55:19;58.55;;;56.05;;
42296;SDS011;28985;47.456;19.016;2022-12-05T06:57:46;59.85;;;56.85;;
42296;SDS011;28985;47.456;19.016;2022-12-05T07:00:13;58.95;;;56.60;;
42296;SDS011;28985;47.456;19.016;2022-12-05T07:02:58;60.10;;;57.53;;
42296;SDS011;28985;47.456;19.016;2022-12-05T07:05:25;60.10;;;57.58;;
42296;SDS011;28985;47.456;19.016;2022-12-05T07:07:51;59.38;;;56.85;;
42296;SDS011;28985;47.456;19.016;2022-12-05T07:10:18;58.15;;;55.65;;
42296;SDS011;28985;47.456;19.016;2022-12-05T07:12:45;57.53;;;54.92;;
42296;SDS011;28985;47.456;19.016;2022-12-05T07:15:12;58.63;;;56.17;;
42296;SDS011;28985;47.456;19.016;2022-12-05T07:17:38;59.10;;;56.53;;
42296;SDS011;28985;47.456;19.016;2022-12-05T07:20:06;56.22;;;53.78;;
42296;SDS011;28985;47.456;19.016;2022-12-05T07:22:35;57.05;;;54.53;;
42296;SDS011;28985;47.456;19.016;2022-12-05T07:25:03;59.08;;;56.58;;
42296;SDS011;28985;47.456;19.016;2022-12-05T07:27:30;58.78;;;56.45;;
42296;SDS011;28985;47.456;19.016;2022-12-05T07:29:56;57.97;;;55.15;;
42296;SDS011;28985;47.456;19.016;2022-12-05T07:32:23;58.28;;;55.78;;
42296;SDS011;28985;47.456;19.016;2022-12-05T07:34:50;58.10;;;55.53;;
42296;SDS011;28985;47.456;19.016;2022-12-05T07:37:20;57.67;;;55.17;;
42296;SDS011;28985;47.456;19.016;2022-12-05T07:39:47;54.63;;;52.33;;
42296;SDS011;28985;47.456;19.016;2022-12-05T07:42:14;58.03;;;55.70;;
42296;SDS011;28985;47.456;19.016;2022-12-05T07:44:40;55.90;;;53.42;;
42296;SDS011;28985;47.456;19.016;2022-12-05T07:47:07;56.10;;;53.63;;
42296;SDS011;28985;47.456;19.016;2022-12-05T07:49:33;60.40;;;57.80;;
42296;SDS011;28985;47.456;19.016;2022-12-05T07:52:00;61.67;;;59.08;;
42296;SDS011;28985;47.456;19.016;2022-12-05T07:54:26;62.50;;;59.85;;
42296;SDS011;28985;47.456;19.016;2022-12-05T07:56:53;63.42;;;60.65;;
42296;SDS011;28985;47.456;19.016;2022-12-05T07:59:20;59.58;;;56.97;;
42296;SDS011;28985;47.456;19.016;2022-12-05T08:01:46;61.65;;;58.45;;
42296;SDS011;28985;47.456;19.016;2022-12-05T08:04:13;58.75;;;56.30;;
42296;SDS011;28985;47.456;19.016;2022-12-05T08:06:41;58.53;;;56.13;;
42296;SDS011;28985;47.456;19.016;2022-12-05T08:09:08;56.35;;;53.97;;
42296;SDS011;28985;47.456;19.016;2022-12-05T08:11:34;52.85;;;50.45;;
42296;SDS011;28985;47.456;19.016;2022-12-05T08:14:02;48.95;;;46.92;;
42296;SDS011;28985;47.456;19.016;2022-12-05T08:16:30;51.55;;;49.25;;
42296;SDS011;28985;47.456;19.016;2022-12-05T08:19:01;50.72;;;48.47;;
42296;SDS011;28985;47.456;19.016;2022-12-05T08:21:30;50.50;;;48.20;;
42296;SDS011;28985;47.456;19.016;2022-12-05T08:23:57;51.70;;;49.40;;
42296;SDS011;28985;47.456;19.016;2022-12-05T08:26:28;51.13;;;48.83;;
42296;SDS011;28985;47.456;19.016;2022-12-05T08:28:57;50.22;;;48.13;;
42296;SDS011;28985;47.456;19.016;2022-12-05T08:31:27;48.35;;;46.25;;
42296;SDS011;28985;47.456;19.016;2022-12-05T08:33:57;50.28;;;48.22;;
42296;SDS011;28985;47.456;19.016;2022-12-05T08:36:26;55.25;;;52.40;;
42296;SDS011;28985;47.456;19.016;2022-12-05T08:39:00;54.35;;;52.15;;
42296;SDS011;28985;47.456;19.016;2022-12-05T08:41:29;53.92;;;51.60;;
42296;SDS011;28985;47.456;19.016;2022-12-05T08:43:57;52.90;;;50.70;;
42296;SDS011;28985;47.456;19.016;2022-12-05T08:46:24;54.00;;;51.70;;
42296;SDS011;28985;47.456;19.016;2022-12-05T08:48:51;54.95;;;52.65;;
42296;SDS011;28985;47.456;19.016;2022-12-05T08:51:18;56.53;;;54.03;;
42296;SDS011;28985;47.456;19.016;2022-12-05T08:53:44;58.55;;;56.00;;
42296;SDS011;28985;47.456;19.016;2022-12-05T08:56:11;57.97;;;55.67;;
42296;SDS011;28985;47.456;19.016;2022-12-05T08:58:39;58.35;;;56.00;;
42296;SDS011;28985;47.456;19.016;2022-12-05T09:01:07;62.10;;;59.35;;
42296;SDS011;28985;47.456;19.016;2022-12-05T09:03:38;60.10;;;57.60;;
42296;SDS011;28985;47.456;19.016;2022-12-05T09:06:17;58.53;;;56.03;;
42296;SDS011;28985;47.456;19.016;2022-12-05T09:08:45;55.78;;;53.58;;
42296;SDS011;28985;47.456;19.016;2022-12-05T09:11:13;56.13;;;53.72;;
42296;SDS011;28985;47.456;19.016;2022-12-05T09:13:43;57.17;;;54.67;;
42296;SDS011;28985;47.456;19.016;2022-12-05T09:16:12;58.13;;;55.50;;
42296;SDS011;28985;47.456;19.016;2022-12-05T09:18:40;59.72;;;57.03;;
42296;SDS011;28985;47.456;19.016;2022-12-05T09:21:09;59.60;;;57.00;;
42296;SDS011;28985;47.456;19.016;2022-12-05T09:23:38;59.75;;;57.10;;
42296;SDS011;28985;47.456;19.016;2022-12-05T09:26:05;61.28;;;58.63;;
42296;SDS011;28985;47.456;19.016;2022-12-05T09:28:33;62.40;;;59.53;;
42296;SDS011;28985;47.456;19.016;2022-12-05T09:31:01;63.40;;;60.53;;
42296;SDS011;28985;47.456;19.016;2022-12-05T09:33:30;61.13;;;58.53;;
42296;SDS011;28985;47.456;19.016;2022-12-05T09:36:05;61.50;;;58.72;;
42296;SDS011;28985;47.456;19.016;2022-12-05T09:38:33;62.45;;;59.45;;
42296;SDS011;28985;47.456;19.016;2022-12-05T09:49:25;58.90;;;56.30;;
42296;SDS011;28985;47.456;19.016;2022-12-05T09:51:54;61.30;;;58.55;;
42296;SDS011;28985;47.456;19.016;2022-12-05T09:54:23;61.97;;;59.25;;
42296;SDS011;28985;47.456;19.016;2022-12-05T09:56:50;64.05;;;61.22;;
42296;SDS011;28985;47.456;19.016;2022-12-05T09:59:18;64.22;;;61.33;;
42296;SDS011;28985;47.456;19.016;2022-12-05T10:01:49;63.60;;;60.80;;
42296;SDS011;28985;47.456;19.016;2022-12-05T10:07:03;62.72;;;60.05;;
42296;SDS011;28985;47.456;19.016;2022-12-05T10:17:58;60.50;;;57.83;;
42296;SDS011;28985;47.456;19.016;2022-12-05T10:20:34;59.70;;;57.17;;
42296;SDS011;28985;47.456;19.016;2022-12-05T10:23:09;61.42;;;58.63;;
42296;SDS011;28985;47.456;19.016;2022-12-05T10:26:01;64.20;;;61.25;;
42296;SDS011;28985;47.456;19.016;2022-12-05T10:28:32;63.17;;;60.22;;
42296;SDS011;28985;47.456;19.016;2022-12-05T10:33:36;51.72;;;49.42;;
42296;SDS011;28985;47.456;19.016;2022-12-05T10:36:09;53.05;;;50.58;;
42296;SDS011;28985;47.456;19.016;2022-12-05T10:38:37;57.20;;;54.80;;
42296;SDS011;28985;47.456;19.016;2022-12-05T10:41:05;68.03;;;64.93;;
42296;SDS011;28985;47.456;19.016;2022-12-05T10:43:34;66.80;;;63.92;;
42296;SDS011;28985;47.456;19.016;2022-12-05T10:46:05;70.20;;;67.00;;
42296;SDS011;28985;47.456;19.016;2022-12-05T10:48:36;72.15;;;68.55;;
42296;SDS011;28985;47.456;19.016;2022-12-05T10:51:04;74.70;;;71.30;;
42296;SDS011;28985;47.456;19.016;2022-12-05T10:59:08;74.95;;;71.78;;
42296;SDS011;28985;47.456;19.016;2022-12-05T11:01:51;70.25;;;67.15;;
42296;SDS011;28985;47.456;19.016;2022-12-05T11:04:26;72.57;;;69.28;;
42296;SDS011;28985;47.456;19.016;2022-12-05T11:06:56;76.72;;;73.20;;
42296;SDS011;28985;47.456;19.016;2022-12-05T11:09:27;76.15;;;72.75;;
42296;SDS011;28985;47.456;19.016;2022-12-05T11:17:41;71.50;;;68.50;;
42296;SDS011;28985;47.456;19.016;2022-12-05T11:20:53;76.43;;;73.10;;
42296;SDS011;28985;47.456;19.016;2022-12-05T11:23:14;68.47;;;65.22;;
42296;SDS011;28985;47.456;19.016;2022-12-05T11:25:46;61.85;;;59.15;;
42296;SDS011;28985;47.456;19.016;2022-12-05T11:33:40;65.47;;;62.47;;
42296;SDS011;28985;47.456;19.016;2022-12-05T11:36:41;64.28;;;61.47;;
42296;SDS011;28985;47.456;19.016;2022-12-05T11:39:11;59.00;;;56.20;;
42296;SDS011;28985;47.456;19.016;2022-12-05T11:50:06;55.42;;;53.03;;
42296;SDS011;28985;47.456;19.016;2022-12-05T11:58:14;59.47;;;56.88;;
42296;SDS011;28985;47.456;19.016;2022-12-05T12:11:44;52.45;;;50.05;;
42296;SDS011;28985;47.456;19.016;2022-12-05T12:31:28;50.63;;;48.22;;
42296;SDS011;28985;47.456;19.016;2022-12-05T12:42:16;52.10;;;49.65;;
42296;SDS011;28985;47.456;19.016;2022-12-05T12:47:32;50.88;;;48.58;;
42296;SDS011;28985;47.456;19.016;2022-12-05T12:50:19;52.15;;;49.35;;
42296;SDS011;28985;47.456;19.016;2022-12-05T12:58:21;51.55;;;49.10;;
42296;SDS011;28985;47.456;19.016;2022-12-05T13:04:26;53.15;;;50.63;;
42296;SDS011;28985;47.456;19.016;2022-12-05T13:06:43;49.50;;;47.10;;
42296;SDS011;28985;47.456;19.016;2022-12-05T13:09:22;50.63;;;48.33;;
42296;SDS011;28985;47.456;19.016;2022-12-05T13:11:50;52.17;;;49.65;;
42296;SDS011;28985;47.456;19.016;2022-12-05T13:14:21;51.80;;;49.42;;
42296;SDS011;28985;47.456;19.016;2022-12-05T13:16:51;53.47;;;51.03;;
42296;SDS011;28985;47.456;19.016;2022-12-05T13:19:37;53.70;;;51.10;;
42296;SDS011;28985;47.456;19.016;2022-12-05T13:22:07;51.40;;;49.10;;
42296;SDS011;28985;47.456;19.016;2022-12-05T13:24:35;54.92;;;52.15;;
42296;SDS011;28985;47.456;19.016;2022-12-05T13:27:06;55.45;;;52.72;;
42296;SDS011;28985;47.456;19.016;2022-12-05T13:29:37;55.47;;;52.80;;
42296;SDS011;28985;47.456;19.016;2022-12-05T13:32:22;59.63;;;56.63;;
42296;SDS011;28985;47.456;19.016;2022-12-05T13:34:52;59.42;;;56.33;;
42296;SDS011;28985;47.456;19.016;2022-12-05T13:37:28;59.75;;;56.50;;
42296;SDS011;28985;47.456;19.016;2022-12-05T13:40:25;58.15;;;54.97;;
42296;SDS011;28985;47.456;19.016;2022-12-05T13:43:14;58.35;;;55.42;;
42296;SDS011;28985;47.456;19.016;2022-12-05T13:45:53;58.53;;;55.20;;
42296;SDS011;28985;47.456;19.016;2022-12-05T13:48:23;58.33;;;55.22;;
42296;SDS011;28985;47.456;19.016;2022-12-05T13:51:02;60.00;;;56.72;;
42296;SDS011;28985;47.456;19.016;2022-12-05T13:53:44;59.90;;;56.55;;
42296;SDS011;28985;47.456;19.016;2022-12-05T14:01:46;58.40;;;55.40;;
42296;SDS011;28985;47.456;19.016;2022-12-05T14:04:40;54.40;;;51.55;;
42296;SDS011;28985;47.456;19.016;2022-12-05T14:07:10;56.78;;;53.78;;
42296;SDS011;28985;47.456;19.016;2022-12-05T14:09:47;56.97;;;54.17;;
42296;SDS011;28985;47.456;19.016;2022-12-05T14:17:22;59.78;;;56.47;;
42296;SDS011;28985;47.456;19.016;2022-12-05T14:19:59;59.42;;;56.50;;
42296;SDS011;28985;47.456;19.016;2022-12-05T14:28:42;57.10;;;54.20;;
42296;SDS011;28985;47.456;19.016;2022-12-05T14:31:23;59.22;;;56.05;;
42296;SDS011;28985;47.456;19.016;2022-12-05T14:36:54;58.80;;;55.80;;
42296;SDS011;28985;47.456;19.016;2022-12-05T14:39:21;59.45;;;56.72;;
42296;SDS011;28985;47.456;19.016;2022-12-05T14:44:55;57.55;;;54.85;;
42296;SDS011;28985;47.456;19.016;2022-12-05T14:47:25;60.85;;;57.85;;
42296;SDS011;28985;47.456;19.016;2022-12-05T14:50:39;62.53;;;59.42;;
42296;SDS011;28985;47.456;19.016;2022-12-05T14:58:45;61.55;;;58.67;;
42296;SDS011;28985;47.456;19.016;2022-12-05T15:01:26;62.90;;;59.85;;
42296;SDS011;28985;47.456;19.016;2022-12-05T15:04:04;62.55;;;59.53;;
42296;SDS011;28985;47.456;19.016;2022-12-05T15:06:49;61.78;;;58.97;;
42296;SDS011;28985;47.456;19.016;2022-12-05T15:12:03;62.15;;;58.92;;
42296;SDS011;28985;47.456;19.016;2022-12-05T15:14:41;66.38;;;63.13;;
42296;SDS011;28985;47.456;19.016;2022-12-05T15:17:13;62.45;;;59.22;;
42296;SDS011;28985;47.456;19.016;2022-12-05T15:19:44;63.75;;;60.55;;
42296;SDS011;28985;47.456;19.016;2022-12-05T15:22:18;62.28;;;59.28;;
42296;SDS011;28985;47.456;19.016;2022-12-05T15:24:48;63.88;;;60.95;;
42296;SDS011;28985;47.456;19.016;2022-12-05T15:27:14;65.90;;;62.90;;
42296;SDS011;28985;47.456;19.016;2022-12-05T15:29:42;66.05;;;63.00;;
42296;SDS011;28985;47.456;19.016;2022-12-05T15:34:45;65.30;;;62.13;;
42296;SDS011;28985;47.456;19.016;2022-12-05T15:42:36;63.90;;;60.90;;
42296;SDS011;28985;47.456;19.016;2022-12-05T15:47:39;63.70;;;60.53;;
42296;SDS011;28985;47.456;19.016;2022-12-05T15:58:08;56.67;;;54.13;;
42296;SDS011;28985;47.456;19.016;2022-12-05T16:01:00;57.67;;;55.03;;
42296;SDS011;28985;47.456;19.016;2022-12-05T16:06:54;60.28;;;57.67;;
42296;SDS011;28985;47.456;19.016;2022-12-05T16:09:08;59.30;;;56.72;;
42296;SDS011;28985;47.456;19.016;2022-12-05T16:11:59;59.17;;;56.60;;
42296;SDS011;28985;47.456;19.016;2022-12-05T16:14:36;58.72;;;56.25;;
42296;SDS011;28985;47.456;19.016;2022-12-05T16:17:24;56.28;;;53.95;;
42296;SDS011;28985;47.456;19.016;2022-12-05T16:19:51;59.95;;;57.17;;
42296;SDS011;28985;47.456;19.016;2022-12-05T16:22:20;61.30;;;58.70;;
42296;SDS011;28985;47.456;19.016;2022-12-05T16:24:58;61.17;;;58.58;;
42296;SDS011;28985;47.456;19.016;2022-12-05T16:27:33;60.50;;;57.92;;
42296;SDS011;28985;47.456;19.016;2022-12-05T16:30:20;62.70;;;59.95;;
42296;SDS011;28985;47.456;19.016;2022-12-05T16:32:48;60.95;;;58.35;;
42296;SDS011;28985;47.456;19.016;2022-12-05T16:40:59;57.53;;;55.17;;
42296;SDS011;28985;47.456;19.016;2022-12-05T16:45:58;63.70;;;61.13;;
42296;SDS011;28985;47.456;19.016;2022-12-05T16:48:33;61.08;;;58.53;;
42296;SDS011;28985;47.456;19.016;2022-12-05T16:53:36;61.40;;;58.75;;
42296;SDS011;28985;47.456;19.016;2022-12-05T16:56:05;62.67;;;59.58;;
42296;SDS011;28985;47.456;19.016;2022-12-05T16:58:37;64.18;;;61.42;;
42296;SDS011;28985;47.456;19.016;2022-12-05T17:01:04;63.72;;;61.08;;
42296;SDS011;28985;47.456;19.016;2022-12-05T17:03:32;63.78;;;60.75;;
42296;SDS011;28985;47.456;19.016;2022-12-05T17:06:01;62.05;;;59.38;;
42296;SDS011;28985;47.456;19.016;2022-12-05T17:08:28;63.25;;;60.55;;
42296;SDS011;28985;47.456;19.016;2022-12-05T17:10:54;66.70;;;63.90;;
42296;SDS011;28985;47.456;19.016;2022-12-05T17:13:21;65.05;;;62.35;;
42296;SDS011;28985;47.456;19.016;2022-12-05T17:15:48;63.92;;;61.05;;
42296;SDS011;28985;47.456;19.016;2022-12-05T17:18:15;64.72;;;61.90;;
42296;SDS011;28985;47.456;19.016;2022-12-05T17:20:47;62.33;;;59.58;;
42296;SDS011;28985;47.456;19.016;2022-12-05T17:23:16;64.03;;;61.20;;
42296;SDS011;28985;47.456;19.016;2022-12-05T17:25:45;62.47;;;59.85;;
42296;SDS011;28985;47.456;19.016;2022-12-05T17:28:15;61.70;;;59.10;;
42296;SDS011;28985;47.456;19.016;2022-12-05T17:30:41;64.18;;;61.38;;
42296;SDS011;28985;47.456;19.016;2022-12-05T17:33:08;64.47;;;61.55;;
42296;SDS011;28985;47.456;19.016;2022-12-05T17:35:37;61.50;;;58.95;;
42296;SDS011;28985;47.456;19.016;2022-12-05T17:38:04;62.20;;;59.50;;
42296;SDS011;28985;47.456;19.016;2022-12-05T17:40:31;62.80;;;60.10;;
42296;SDS011;28985;47.456;19.016;2022-12-05T17:42:58;63.38;;;60.63;;
42296;SDS011;28985;47.456;19.016;2022-12-05T17:45:26;62.25;;;59.60;;
42296;SDS011;28985;47.456;19.016;2022-12-05T17:47:53;61.60;;;58.80;;
42296;SDS011;28985;47.456;19.016;2022-12-05T17:50:20;62.67;;;59.80;;
42296;SDS011;28985;47.456;19.016;2022-12-05T17:52:48;65.72;;;62.72;;
42296;SDS011;28985;47.456;19.016;2022-12-05T17:55:17;63.05;;;60.38;;